Flight Track Log - Related Links

Times and Time Zones

All times are in EDT time to prevent confusion due to time zone crossing. See the N946RM flight status page for this flight to view local times or setup timezone preferences in your user account.

Time Position Orientation Groundspeed Altitude Reporting Facility
EDT Latitude Longitude Course Direction KTS MPH feet Rate Location/Type
Wed 01:49:57 PM 29.1764 -81.0683 68° East 140 161 500  Level Jacksonville Center
Wed 01:51:23 PM 29.2044 -80.9869 68° East 197 227 5,900 3,354 Climbing Jacksonville Center
Wed 01:52:38 PM 29.2792 -80.9714 10° North 239 275 9,500 2,267 Climbing Jacksonville Center
Wed 01:53:38 PM 29.3464 -81.0033 338° Northwest 257 296 11,000 1,750 Climbing Jacksonville Center
Wed 01:54:38 PM 29.3853 -81.0956 296° West 290 334 13,000 2,100 Climbing Jacksonville Center
Wed 01:55:38 PM 29.4242 -81.1783 298° West 304 350 15,200 2,150 Climbing Jacksonville Center
Wed 01:56:38 PM 29.4650 -81.2611 300° West 294 338 17,300 1,850 Climbing Jacksonville Center
Wed 01:57:38 PM 29.4992 -81.3439 295° West 305 351 18,900 1,700 Climbing Jacksonville Center
Wed 01:58:38 PM 29.5461 -81.4267 303° West 305 351 20,700 1,850 Climbing Jacksonville Center
Wed 01:59:38 PM 29.6383 -81.4444 350° North 291 335 22,600 2,000 Climbing Jacksonville Center
Wed 02:00:38 PM 29.7281 -81.4575 353° North 303 349 24,700 2,050 Climbing Jacksonville Center
Wed 02:01:38 PM 29.7894 -81.5214 318° Northwest 290 334 26,700 2,100 Climbing Jacksonville Center
Wed 02:02:38 PM 29.8381 -81.5925 308° West 285 328 28,900 2,000 Climbing Jacksonville Center
Wed 02:03:38 PM 29.8869 -81.6636 308° West 285 328 30,700 1,400 Climbing Jacksonville Center
Wed 02:04:38 PM 29.9397 -81.7397 309° West 293 337 31,700 650 Climbing Jacksonville Center
Wed 02:05:38 PM 29.9969 -81.8181 310° West 304 350 32,000 150 Climbing Jacksonville Center
Wed 02:06:38 PM 30.0561 -81.9039 309° West 324 373 32,000  Level Jacksonville Center
Wed 02:07:38 PM 30.1214 -81.9919 311° West 351 404 32,000  Level Jacksonville Center
Wed 02:08:38 PM 30.1847 -82.0828 309° West 357 411 32,000  Level Jacksonville Center
Wed 02:09:38 PM 30.2458 -82.1761 307° West 367 422 32,000  Level Jacksonville Center
Wed 02:10:38 PM 30.3089 -82.2644 310° West 362 417 32,000 450 Level Jacksonville Center
Wed 02:11:38 PM 30.3739 -82.3653 307° West 362 417 32,900 950 Climbing Jacksonville Center
Wed 02:12:38 PM 30.4328 -82.4517 308° West 356 410 33,900 550 Climbing Jacksonville Center
Wed 02:13:38 PM 30.4936 -82.5381 309° West 351 404 34,000 50 Climbing Jacksonville Center
Wed 02:14:38 PM 30.5564 -82.6247 310° West 351 404 34,000 500 Level Jacksonville Center
Wed 02:15:38 PM 30.6214 -82.7092 312° West 351 404 35,000 1,000 Climbing Jacksonville Center
Wed 02:16:38 PM 30.6842 -82.7886 313° West 351 404 36,000 500 Climbing Jacksonville Center
Wed 02:17:38 PM 30.7467 -82.8733 311° West 351 404 36,000  Level Jacksonville Center
Wed 02:18:38 PM 30.8136 -82.9531 314° West 351 404 36,000 450 Level Jacksonville Center
Wed 02:19:38 PM 30.8678 -83.0281 310° West 346 398 36,900 950 Climbing Jacksonville Center
Wed 02:20:38 PM 30.9261 -83.1058 311° West 333 383 37,900 550 Climbing Jacksonville Center
Wed 02:21:38 PM 30.9864 -83.1833 312° West 333 383 38,000 50 Climbing Jacksonville Center
Wed 02:22:38 PM 31.0489 -83.2661 311° West 333 383 38,000  Level Jacksonville Center
Wed 02:23:38 PM 31.1072 -83.3464 310° West 333 383 38,000  Level Jacksonville Center
Wed 02:24:38 PM 31.1653 -83.4219 312° West 333 383 38,000  Level Jacksonville Center
Wed 02:25:38 PM 31.2256 -83.5000 312° West 328 377 38,000  Level Jacksonville Center
Wed 02:27:22 PM 31.3306 -83.6450 310° West 318 366 38,000  Level Atlanta Center
Wed 02:28:22 PM 31.3894 -83.7228 312° West 313 360 38,000  Level Atlanta Center
Wed 02:29:22 PM 31.4458 -83.8028 310° West 313 360 38,000  Level Atlanta Center
Wed 02:30:22 PM 31.5044 -83.8831 311° West 318 366 38,000  Level Atlanta Center
Wed 02:31:22 PM 31.5567 -83.9561 310° West 318 366 38,000  Level Atlanta Center
Wed 02:32:22 PM 31.6172 -84.0339 312° West 323 372 38,000  Level Atlanta Center
Wed 02:33:22 PM 31.6778 -84.1122 312° West 323 372 38,000 -500 Level Atlanta Center
Wed 02:34:22 PM 31.7361 -84.1903 311° West 328 377 37,000 -1,250 Descending Atlanta Center
Wed 02:35:22 PM 31.7944 -84.2711 310° West 328 377 35,500 -1,500 Descending Atlanta Center
Wed 02:36:22 PM 31.8589 -84.3592 311° West 339 390 34,000 -1,500 Descending Atlanta Center
Wed 02:37:22 PM 31.9214 -84.4425 311° West 344 396 32,500 -1,000 Descending Atlanta Center
Wed 02:38:22 PM 31.9836 -84.5261 311° West 344 396 32,000 -250 Descending Atlanta Center
Wed 02:39:22 PM 32.0481 -84.6147 311° West 344 396 32,000  Level Atlanta Center
Wed 02:40:22 PM 32.1122 -84.7033 311° West 354 407 32,000  Level Atlanta Center
Wed 02:41:22 PM 32.1783 -84.7922 311° West 354 407 32,000  Level Atlanta Center
Wed 02:42:22 PM 32.2406 -84.8811 310° West 359 413 32,000  Level Atlanta Center
Wed 02:43:22 PM 32.3108 -84.9728 312° West 352 405 32,000 -700 Level Atlanta Center
Wed 02:44:22 PM 32.3747 -85.0619 310° West 352 405 30,600 -1,500 Descending Atlanta Center
Wed 02:45:22 PM 32.4367 -85.1464 311° West 352 405 29,000 -1,600 Descending Atlanta Center
Wed 02:46:22 PM 32.4986 -85.2333 310° West 352 405 27,400 -1,550 Descending Atlanta Center
Wed 02:47:22 PM 32.5622 -85.3228 310° West 352 405 25,900 -1,400 Descending Atlanta Center
Wed 02:48:22 PM 32.6303 -85.4128 312° West 359 413 24,600 -1,300 Descending Atlanta Center
Wed 02:49:22 PM 32.6878 -85.4975 309° West 352 405 23,300 -1,300 Descending Atlanta Center
Wed 02:50:22 PM 32.7453 -85.5775 311° West 335 386 22,000 -1,300 Descending Atlanta Center
Wed 02:51:22 PM 32.8067 -85.6625 311° West 335 386 20,700 -1,300 Descending Atlanta Center
Wed 02:52:22 PM 32.8619 -85.7428 309° West 330 380 19,400 -1,300 Descending Atlanta Center
Wed 02:53:22 PM 32.9192 -85.8231 310° West 330 380 18,100 -1,200 Descending Atlanta Center
Wed 02:54:22 PM 32.9764 -85.9058 310° West 330 380 17,000 -1,200 Descending Atlanta Center
Wed 02:54:37 PM 32.9844 -85.9283 293° West 318 366 16,600 -1,538 Descending Atlanta Center
Wed 02:55:01 PM 33.0111 -85.9661 310° West 317 365 16,000 -1,200 Descending Atlanta Center
Wed 02:55:22 PM 33.0317 -85.9839 324° Northwest 324 373 15,700 -1,377 Descending Atlanta Center
Wed 02:56:02 PM 33.0683 -86.0417 307° West 314 361 14,600 -1,300 Descending Atlanta Center
Wed 02:56:22 PM 33.0806 -86.0569 314° West 319 367 14,400 -1,300 Descending Atlanta Center
Wed 02:57:02 PM 33.1233 -86.1222 308° West 305 351 13,300 -1,300 Descending Atlanta Center
Wed 02:57:22 PM 33.1356 -86.1325 325° Northwest 313 360 13,100 -1,377 Descending Atlanta Center
Wed 02:58:03 PM 33.1742 -86.1981 305° West 298 343 11,900 -1,400 Descending Atlanta Center
Wed 02:58:22 PM 33.1886 -86.2058 336° Northwest 301 346 11,700 -1,082 Descending Atlanta Center
Wed 02:59:04 PM 33.2231 -86.2686 303° West 275 316 10,800 -1,300 Descending Atlanta Center
Wed 02:59:22 PM 33.2375 -86.2789 329° Northwest 291 335 10,400 -1,600 Descending Atlanta Center
Wed 03:00:04 PM 33.2892 -86.3053 337° Northwest 268 308 9,200 -1,600 Descending Atlanta Center
Wed 03:00:22 PM 33.3058 -86.3056 359° North 262 302 8,800 -1,574 Descending Atlanta Center
Wed 03:01:05 PM 33.3617 -86.3319 338° Northwest 279 321 7,600 -1,500 Descending Atlanta Center
Wed 03:01:22 PM 33.3806 -86.3325 359° North 267 307 7,300 -600 Descending Atlanta Center
Wed 03:02:05 PM 33.4278 -86.3761 322° Northwest 256 295 7,000 -400 Descending Atlanta Center
Wed 03:02:22 PM 33.4381 -86.3789 347° North 261 300 6,900  Descending Atlanta Center
Wed 03:03:06 PM 33.4850 -86.4325 316° Northwest 253 291 7,000  Climbing Atlanta Center
Wed 03:03:22 PM 33.4994 -86.4378 343° North 261 300 6,900  Descending Atlanta Center
Wed 03:04:07 PM 33.5406 -86.4814 319° Northwest 254 292 7,000  Climbing Atlanta Center
Wed 03:04:22 PM 33.5550 -86.4892 336° Northwest 255 293 6,900 -800 Descending Atlanta Center
Wed 03:05:07 PM 33.5958 -86.5353 317° Northwest 253 291 6,200 -2,151 Descending Atlanta Center
Wed 03:06:08 PM 33.6625 -86.5422 355° North 253 291 3,100 -1,721 Descending Atlanta Center
Wed 03:07:09 PM 33.6550 -86.5994 261° West 178 205 2,700 -248 Descending Atlanta Center
Wed 03:08:09 PM 33.6247 -86.6508 235° Southwest 179 206 2,600 -443 Descending Atlanta Center
Wed 03:09:11 PM 33.6031 -86.6900 236° Southwest 131 151 1,800 -694 Descending Atlanta Center
Wed 03:10:10 PM 33.5836 -86.7194 232° Southwest 107 123 1,200 -610 Descending Atlanta Center
Wed 03:12:00 PM 33.5639 -86.7523 280° West  Level Estimated
Wed 03:19:00 PM 33.5639 -86.7523 North  Level Estimated

Login

Don't have an account? Register now (free) for customized features, flight alerts, and more!